Time;durP1;ratioP1;P1;durP2;ratioP2;P2;SDS_P1;SDS_P2;PMS_P1;PMS_P2;Temp;Humidity;BMP_temperature;BMP_pressure;BME280_temperature;BME280_humidity;BME280_pressure;Samples;Min_cycle;Max_cycle;Signal;HPM_P1;HPM_P2
2022/01/02 00:01:53;;;;;;;;;;;17.50;99.90;;;;;;5062212;28;1961;-47
2022/01/02 00:04:20;;;;;;;;;;;17.50;99.90;;;;;;5078492;28;831;-46
2022/01/02 00:06:48;;;;;;;;;;;17.50;99.90;;;;;;5077923;28;814;-46
2022/01/02 00:09:20;;;;;;;;;;;17.50;99.90;;;;;;5078505;28;1047;-58
2022/01/02 00:11:47;;;;;;;;;;;17.50;99.90;;;;;;5078167;28;829;-58
2022/01/02 00:14:16;;;;;;;;;;;17.50;99.90;;;;;;5078315;28;792;-58
2022/01/02 00:16:42;;;;;;;;;;;17.40;99.90;;;;;;5077644;28;789;-58
2022/01/02 00:19:19;;;;;;;;;;;17.40;99.90;;;;;;5078164;28;900;-58
2022/01/02 00:21:47;;;;;;;;;;;17.40;99.90;;;;;;5077828;28;1937;-58
2022/01/02 00:24:18;;;;;;;;;;;17.40;99.90;;;;;;5076946;28;1253;-58
2022/01/02 00:26:46;;;;;;;;;;;17.40;99.90;;;;;;5077473;28;1122;-58
2022/01/02 00:29:12;;;;;;;;;;;17.30;99.90;;;;;;5068639;28;1094;-64
2022/01/02 00:31:39;;;;;;;;;;;17.40;99.90;;;;;;5073108;28;868;-58
2022/01/02 00:34:06;;;;;;;;;;;17.30;99.90;;;;;;5075737;28;837;-57
2022/01/02 00:36:32;;;;;;;;;;;17.30;99.90;;;;;;5076581;28;865;-57
2022/01/02 00:38:58;;;;;;;;;;;17.30;99.90;;;;;;5077478;28;774;-57
2022/01/02 00:41:30;;;;;;;;;;;17.30;99.90;;;;;;5077406;28;1961;-57
2022/01/02 00:44:23;;;;;;;;;;;17.30;99.90;;;;;;5077509;28;860;-57
2022/01/02 00:46:52;;;;;;;;;;;17.30;99.90;;;;;;5066116;28;1203;-57
2022/01/02 00:49:24;;;;;;;;;;;17.20;99.90;;;;;;5076621;28;855;-57
2022/01/02 00:51:55;;;;;;;;;;;17.20;99.90;;;;;;5074980;28;873;-57
2022/01/02 00:54:27;;;;;;;;;;;17.20;99.90;;;;;;5075190;28;1171;-57
2022/01/02 00:56:56;;;;;;;;;;;17.10;99.90;;;;;;5077450;28;754;-57
2022/01/02 00:59:30;;;;;;;;;;;17.10;99.90;;;;;;5073703;28;833;-57
2022/01/02 01:02:02;;;;;;;;;;;17.10;99.90;;;;;;5075491;28;1901;-57
2022/01/02 01:04:36;;;;;;;;;;;17.10;99.90;;;;;;5073875;28;880;-57
2022/01/02 01:07:04;;;;;;;;;;;17.10;99.90;;;;;;5075883;28;812;-57
2022/01/02 01:09:30;;;;;;;;;;;17.00;99.90;;;;;;5077015;28;773;-57
2022/01/02 01:12:00;;;;;;;;;;;17.00;99.90;;;;;;5077127;28;813;-46
2022/01/02 01:14:27;;;;;;;;;;;17.00;99.90;;;;;;5077040;28;844;-57
2022/01/02 01:16:53;;;;;;;;;;;17.00;99.90;;;;;;5077094;28;874;-57
2022/01/02 01:19:22;;;;;;;;;;;17.00;99.90;;;;;;5076797;28;1026;-57
2022/01/02 01:21:49;;;;;;;;;;;17.00;99.90;;;;;;5076669;28;1967;-57
2022/01/02 01:24:16;;;;;;;;;;;16.90;99.90;;;;;;5076813;28;734;-57
2022/01/02 01:26:46;;;;;;;;;;;16.90;99.90;;;;;;5075086;28;901;-46
2022/01/02 01:29:12;;;;;;;;;;;16.90;99.90;;;;;;5074981;28;927;-46
2022/01/02 01:31:38;;;;;;;;;;;16.90;99.90;;;;;;5074623;28;1000;-46
2022/01/02 01:34:05;;;;;;;;;;;16.90;99.90;;;;;;5075028;28;809;-46
2022/01/02 01:36:31;;;;;;;;;;;16.80;99.90;;;;;;5074798;28;881;-46
2022/01/02 01:38:57;;;;;;;;;;;16.80;99.90;;;;;;5074070;28;879;-46
2022/01/02 01:41:27;;;;;;;;;;;16.80;99.90;;;;;;5074797;28;1902;-46
2022/01/02 01:44:07;;;;;;;;;;;16.80;99.90;;;;;;5072439;28;969;-46
2022/01/02 01:46:33;;;;;;;;;;;16.80;99.90;;;;;;5074189;28;1078;-56
2022/01/02 01:48:59;;;;;;;;;;;16.70;99.90;;;;;;5074757;28;1052;-57
2022/01/02 01:51:25;;;;;;;;;;;16.70;99.90;;;;;;5074621;28;969;-57
2022/01/02 01:53:52;;;;;;;;;;;16.70;99.90;;;;;;5074641;28;1116;-56
2022/01/02 01:56:20;;;;;;;;;;;16.70;99.90;;;;;;5057182;28;871;-56
2022/01/02 01:58:47;;;;;;;;;;;16.70;99.90;;;;;;5076039;28;1012;-46
2022/01/02 02:01:14;;;;;;;;;;;16.70;99.90;;;;;;5075785;28;1902;-56
2022/01/02 02:03:40;;;;;;;;;;;16.60;99.90;;;;;;5058169;28;1380;-46
2022/01/02 02:06:06;;;;;;;;;;;16.60;99.90;;;;;;5076152;28;861;-47
2022/01/02 02:08:32;;;;;;;;;;;16.60;99.90;;;;;;5075951;28;869;-45
2022/01/02 02:10:58;;;;;;;;;;;16.60;99.90;;;;;;5076044;28;758;-46
2022/01/02 02:13:24;;;;;;;;;;;16.60;99.90;;;;;;5076259;28;891;-46
2022/01/02 02:15:52;;;;;;;;;;;16.60;99.90;;;;;;5075981;28;781;-56
2022/01/02 02:18:19;;;;;;;;;;;16.50;99.90;;;;;;5074489;28;1064;-56
2022/01/02 02:20:46;;;;;;;;;;;16.50;99.90;;;;;;5075937;28;1961;-56
2022/01/02 02:23:13;;;;;;;;;;;16.50;99.90;;;;;;5075865;28;805;-56
2022/01/02 02:25:40;;;;;;;;;;;16.50;99.90;;;;;;5056067;28;946;-57
2022/01/02 02:28:07;;;;;;;;;;;16.50;99.90;;;;;;5074802;28;1168;-56
2022/01/02 02:30:34;;;;;;;;;;;16.50;99.90;;;;;;5073664;28;836;-56
2022/01/02 02:33:01;;;;;;;;;;;16.40;99.90;;;;;;5075823;28;855;-56
2022/01/02 02:35:29;;;;;;;;;;;16.50;99.90;;;;;;5075814;28;859;-56
2022/01/02 02:37:55;;;;;;;;;;;16.40;99.90;;;;;;5075817;28;900;-57
2022/01/02 02:40:25;;;;;;;;;;;16.40;99.90;;;;;;5075641;28;1901;-56
2022/01/02 02:42:57;;;;;;;;;;;16.40;99.90;;;;;;5073259;28;1384;-56
2022/01/02 02:51:08;;;;;;;;;;;16.40;99.90;;;;;;5075602;28;897;-56
2022/01/02 02:53:36;;;;;;;;;;;16.40;99.90;;;;;;5075236;28;1172;-57
2022/01/02 02:56:12;;;;;;;;;;;16.40;99.90;;;;;;5075850;28;956;-56
2022/01/02 02:58:41;;;;;;;;;;;16.30;99.90;;;;;;5075616;28;872;-57
2022/01/02 03:01:14;;;;;;;;;;;16.30;99.90;;;;;;5075292;28;1965;-57
2022/01/02 03:03:41;;;;;;;;;;;16.30;99.90;;;;;;5057470;28;935;-56
2022/01/02 03:06:09;;;;;;;;;;;16.30;99.90;;;;;;5075667;28;828;-56
2022/01/02 03:08:36;;;;;;;;;;;16.30;99.90;;;;;;5075367;28;824;-56
2022/01/02 03:11:02;;;;;;;;;;;16.30;99.90;;;;;;5075429;28;781;-56
2022/01/02 03:13:28;;;;;;;;;;;16.20;99.90;;;;;;5079546;28;798;-56
2022/01/02 03:15:55;;;;;;;;;;;16.20;99.90;;;;;;5079427;28;857;-57
2022/01/02 03:18:22;;;;;;;;;;;16.20;99.90;;;;;;5079314;28;863;-57
2022/01/02 03:20:48;;;;;;;;;;;16.20;99.90;;;;;;5079132;28;1902;-56
2022/01/02 03:23:15;;;;;;;;;;;16.20;99.90;;;;;;5079046;28;832;-57
2022/01/02 03:25:41;;;;;;;;;;;16.20;99.90;;;;;;5079143;28;1139;-57
2022/01/02 03:28:07;;;;;;;;;;;16.20;99.90;;;;;;5079093;28;793;-56
2022/01/02 03:30:33;;;;;;;;;;;16.20;99.90;;;;;;5079178;28;853;-46
2022/01/02 03:32:59;;;;;;;;;;;16.20;99.90;;;;;;5078998;28;844;-56
2022/01/02 03:35:27;;;;;;;;;;;16.20;99.90;;;;;;5077825;28;967;-57
2022/01/02 03:37:55;;;;;;;;;;;16.10;99.90;;;;;;5078712;28;817;-46
2022/01/02 03:40:21;;;;;;;;;;;16.10;99.90;;;;;;5078743;28;1897;-45
2022/01/02 03:42:48;;;;;;;;;;;16.10;99.90;;;;;;5077928;28;923;-45
2022/01/02 03:45:14;;;;;;;;;;;16.10;99.90;;;;;;5077757;28;1377;-45
2022/01/02 03:47:40;;;;;;;;;;;16.10;99.90;;;;;;5075678;28;806;-45
2022/01/02 03:50:08;;;;;;;;;;;16.10;99.90;;;;;;5078971;28;838;-45
2022/01/02 03:52:34;;;;;;;;;;;16.10;99.90;;;;;;5078086;28;1022;-56
2022/01/02 03:55:00;;;;;;;;;;;16.10;99.90;;;;;;5078459;28;849;-57
2022/01/02 03:57:27;;;;;;;;;;;16.10;99.90;;;;;;5078078;28;1072;-56
2022/01/02 03:59:54;;;;;;;;;;;16.00;99.90;;;;;;5078505;28;899;-45
2022/01/02 04:02:23;;;;;;;;;;;16.00;99.90;;;;;;5045207;28;1890;-45
2022/01/02 04:04:50;;;;;;;;;;;16.00;99.90;;;;;;5076200;28;992;-45
2022/01/02 04:07:16;;;;;;;;;;;16.00;99.90;;;;;;5076462;28;848;-45
2022/01/02 04:09:43;;;;;;;;;;;16.00;99.90;;;;;;5076811;28;808;-45
2022/01/02 04:12:08;;;;;;;;;;;16.00;99.90;;;;;;5076590;28;829;-45
2022/01/02 04:14:34;;;;;;;;;;;16.00;99.90;;;;;;5076629;28;957;-45
2022/01/02 04:17:00;;;;;;;;;;;16.00;99.90;;;;;;5076502;28;919;-45
2022/01/02 04:19:27;;;;;;;;;;;16.00;99.90;;;;;;5076623;28;833;-46
2022/01/02 04:21:55;;;;;;;;;;;16.00;99.90;;;;;;5076258;28;1910;-45
2022/01/02 04:24:22;;;;;;;;;;;15.90;99.90;;;;;;5075268;28;999;-45
2022/01/02 04:26:47;;;;;;;;;;;16.00;99.90;;;;;;5076408;28;977;-45
2022/01/02 04:29:13;;;;;;;;;;;15.90;99.90;;;;;;5076402;28;908;-45
2022/01/02 04:31:39;;;;;;;;;;;15.90;99.90;;;;;;5075582;28;982;-45
2022/01/02 04:34:05;;;;;;;;;;;15.90;99.90;;;;;;5074202;28;1253;-56
2022/01/02 04:36:31;;;;;;;;;;;15.90;99.90;;;;;;5065989;28;1162;-56
2022/01/02 04:38:57;;;;;;;;;;;15.90;99.90;;;;;;5075971;28;1435;-56
2022/01/02 04:41:24;;;;;;;;;;;15.90;99.90;;;;;;5077705;28;1902;-56
2022/01/02 04:43:50;;;;;;;;;;;15.90;99.90;;;;;;5077768;28;859;-56
2022/01/02 04:46:16;;;;;;;;;;;15.90;99.90;;;;;;5077531;28;841;-56
2022/01/02 04:48:42;;;;;;;;;;;15.90;99.90;;;;;;5076724;28;940;-56
2022/01/02 04:51:08;;;;;;;;;;;15.90;99.90;;;;;;5077769;28;761;-56
2022/01/02 04:53:37;;;;;;;;;;;15.90;99.90;;;;;;5077262;28;1159;-56
2022/01/02 04:56:03;;;;;;;;;;;15.80;99.90;;;;;;5077103;28;924;-56
2022/01/02 04:58:30;;;;;;;;;;;15.80;99.90;;;;;;5077668;28;979;-57
2022/01/02 05:00:57;;;;;;;;;;;15.80;99.90;;;;;;5077095;28;1898;-56
2022/01/02 05:03:24;;;;;;;;;;;15.80;99.90;;;;;;5077331;28;836;-45
2022/01/02 05:05:50;;;;;;;;;;;15.80;99.90;;;;;;5076834;28;905;-45
2022/01/02 05:08:16;;;;;;;;;;;15.80;99.90;;;;;;5077291;28;930;-56
2022/01/02 05:10:42;;;;;;;;;;;15.80;99.90;;;;;;5077433;28;835;-56
2022/01/02 05:13:08;;;;;;;;;;;15.80;99.90;;;;;;5077280;28;924;-56
2022/01/02 05:15:34;;;;;;;;;;;15.80;99.90;;;;;;5077077;28;749;-56
2022/01/02 05:18:01;;;;;;;;;;;15.80;99.90;;;;;;5076962;28;863;-56
2022/01/02 05:20:28;;;;;;;;;;;15.80;99.90;;;;;;5077161;28;900;-56
2022/01/02 05:22:54;;;;;;;;;;;15.70;99.90;;;;;;5076910;28;1152;-56
2022/01/02 05:25:21;;;;;;;;;;;15.70;99.90;;;;;;5076956;28;812;-56
2022/01/02 05:27:47;;;;;;;;;;;15.70;99.90;;;;;;5076893;28;875;-56
2022/01/02 05:30:13;;;;;;;;;;;15.70;99.90;;;;;;5076926;28;777;-56
2022/01/02 05:32:39;;;;;;;;;;;15.70;99.90;;;;;;5076567;28;825;-56
2022/01/02 05:35:06;;;;;;;;;;;15.70;99.90;;;;;;5076367;28;881;-56
2022/01/02 05:37:32;;;;;;;;;;;15.70;99.90;;;;;;5071309;28;774;-56
2022/01/02 05:40:00;;;;;;;;;;;15.70;99.90;;;;;;5075885;28;777;-57
2022/01/02 05:42:26;;;;;;;;;;;15.70;99.90;;;;;;5071314;28;1971;-56
2022/01/02 05:44:53;;;;;;;;;;;15.70;99.90;;;;;;5076734;28;772;-57
2022/01/02 05:47:19;;;;;;;;;;;15.70;99.90;;;;;;5076324;28;868;-56
2022/01/02 05:49:45;;;;;;;;;;;15.70;99.90;;;;;;5076553;28;807;-56
2022/01/02 05:52:11;;;;;;;;;;;15.60;99.90;;;;;;5075873;28;908;-56
2022/01/02 05:54:37;;;;;;;;;;;15.60;99.90;;;;;;5076129;28;1144;-56
2022/01/02 05:57:04;;;;;;;;;;;15.60;99.90;;;;;;5076490;28;912;-57
2022/01/02 05:59:31;;;;;;;;;;;15.60;99.90;;;;;;5076186;28;996;-56
2022/01/02 06:01:58;;;;;;;;;;;15.60;99.90;;;;;;5049245;28;1906;-57
2022/01/02 06:04:45;;;;;;;;;;;15.60;99.90;;;;;;5076182;28;717;-57
2022/01/02 06:07:11;;;;;;;;;;;15.60;99.90;;;;;;5076025;28;847;-56
2022/01/02 06:09:37;;;;;;;;;;;15.60;99.90;;;;;;5076032;28;869;-57
2022/01/02 06:12:04;;;;;;;;;;;15.60;99.90;;;;;;5076077;28;845;-57
2022/01/02 06:14:31;;;;;;;;;;;15.60;99.90;;;;;;5076068;28;912;-57
2022/01/02 06:16:58;;;;;;;;;;;15.60;99.90;;;;;;5076038;28;885;-56
2022/01/02 06:19:24;;;;;;;;;;;15.60;99.90;;;;;;5076174;28;928;-45
2022/01/02 06:21:50;;;;;;;;;;;15.60;99.90;;;;;;5075932;28;1972;-45
2022/01/02 06:24:16;;;;;;;;;;;15.60;99.90;;;;;;5072068;28;1005;-45
2022/01/02 06:26:42;;;;;;;;;;;15.60;99.90;;;;;;5075847;28;883;-57
2022/01/02 06:29:08;;;;;;;;;;;15.50;99.90;;;;;;5075872;28;879;-57
2022/01/02 06:31:36;;;;;;;;;;;15.60;99.90;;;;;;5075728;28;833;-56
2022/01/02 06:34:02;;;;;;;;;;;15.60;99.90;;;;;;5076020;28;1031;-45
2022/01/02 06:36:30;;;;;;;;;;;15.50;99.90;;;;;;5072646;28;1301;-56
2022/01/02 06:38:58;;;;;;;;;;;15.50;99.90;;;;;;5074608;28;1281;-57
2022/01/02 06:41:24;;;;;;;;;;;15.50;99.90;;;;;;5075785;28;1965;-56
2022/01/02 06:43:52;;;;;;;;;;;15.50;99.90;;;;;;5075963;28;859;-56
2022/01/02 06:46:18;;;;;;;;;;;15.50;99.90;;;;;;5076066;28;816;-57
2022/01/02 06:48:45;;;;;;;;;;;15.50;99.90;;;;;;5080200;28;911;-57
2022/01/02 06:51:11;;;;;;;;;;;15.50;99.90;;;;;;5079873;28;848;-56
2022/01/02 06:53:37;;;;;;;;;;;15.50;99.90;;;;;;5079450;28;1034;-56
2022/01/02 06:56:04;;;;;;;;;;;15.40;99.90;;;;;;5080061;28;804;-56
2022/01/02 06:58:31;;;;;;;;;;;15.50;99.90;;;;;;5079958;28;859;-57
2022/01/02 07:00:57;;;;;;;;;;;15.50;99.90;;;;;;5061423;28;1918;-56
2022/01/02 07:03:24;;;;;;;;;;;15.50;99.90;;;;;;5079449;28;878;-56
2022/01/02 07:05:50;;;;;;;;;;;15.50;99.90;;;;;;5078098;28;1360;-57
2022/01/02 07:08:16;;;;;;;;;;;15.50;99.90;;;;;;5076389;28;1002;-56
2022/01/02 07:10:44;;;;;;;;;;;15.50;99.90;;;;;;5079586;28;933;-57
2022/01/02 07:13:09;;;;;;;;;;;15.40;99.90;;;;;;5079466;28;844;-45
2022/01/02 07:15:35;;;;;;;;;;;15.40;99.90;;;;;;5090275;22;2071;-45
2022/01/02 07:18:02;;;;;;;;;;;15.40;99.90;;;;;;5090176;28;1704;-57
2022/01/02 07:20:28;;;;;;;;;;;15.40;99.90;;;;;;5078801;28;1449;-56
2022/01/02 07:22:55;;;;;;;;;;;15.40;99.90;;;;;;5079206;28;1977;-56
2022/01/02 07:25:22;;;;;;;;;;;15.40;99.90;;;;;;5078895;28;905;-56
2022/01/02 07:27:48;;;;;;;;;;;15.40;99.90;;;;;;5078944;28;786;-45
2022/01/02 07:30:13;;;;;;;;;;;15.40;99.90;;;;;;5079284;28;818;-45
2022/01/02 07:32:40;;;;;;;;;;;15.40;99.90;;;;;;5078897;28;1720;-45
2022/01/02 07:35:06;;;;;;;;;;;15.40;99.90;;;;;;5079104;28;762;-45
2022/01/02 07:37:33;;;;;;;;;;;15.40;99.90;;;;;;5077078;28;942;-45
2022/01/02 07:39:59;;;;;;;;;;;15.40;99.90;;;;;;5079089;28;863;-56
2022/01/02 07:42:26;;;;;;;;;;;15.50;99.90;;;;;;5078921;28;1898;-45
2022/01/02 07:44:52;;;;;;;;;;;15.50;99.90;;;;;;5078763;28;793;-45
2022/01/02 07:47:18;;;;;;;;;;;15.50;99.90;;;;;;5078475;28;867;-45
2022/01/02 07:49:44;;;;;;;;;;;15.50;99.90;;;;;;5078779;28;856;-45
2022/01/02 07:52:10;;;;;;;;;;;15.60;99.90;;;;;;5078629;28;762;-45
2022/01/02 07:54:38;;;;;;;;;;;15.60;99.90;;;;;;5078369;28;927;-45
2022/01/02 07:57:05;;;;;;;;;;;15.60;99.90;;;;;;5080207;28;1004;-45
2022/01/02 07:59:32;;;;;;;;;;;15.70;99.90;;;;;;5080291;28;883;-56
2022/01/02 08:01:57;;;;;;;;;;;15.70;99.90;;;;;;5078205;28;1906;-56
2022/01/02 08:04:25;;;;;;;;;;;15.80;99.90;;;;;;5079270;28;918;-56
2022/01/02 08:06:54;;;;;;;;;;;15.80;99.90;;;;;;5078517;28;780;-45
2022/01/02 08:09:20;;;;;;;;;;;15.90;99.90;;;;;;5078468;28;954;-45
2022/01/02 08:11:46;;;;;;;;;;;15.90;99.90;;;;;;5077938;28;868;-57
2022/01/02 08:14:12;;;;;;;;;;;15.90;99.90;;;;;;5078555;28;765;-56
2022/01/02 08:16:38;;;;;;;;;;;16.00;99.90;;;;;;5077572;28;1005;-56
2022/01/02 08:19:06;;;;;;;;;;;16.00;99.90;;;;;;5078270;28;772;-45
2022/01/02 08:21:32;;;;;;;;;;;16.00;99.90;;;;;;5078208;28;1914;-56
2022/01/02 08:23:58;;;;;;;;;;;16.10;99.90;;;;;;5078239;28;863;-57
2022/01/02 08:26:26;;;;;;;;;;;16.10;99.90;;;;;;5077997;28;851;-57
2022/01/02 08:28:52;;;;;;;;;;;16.10;99.90;;;;;;5078364;28;793;-56
2022/01/02 08:31:18;;;;;;;;;;;16.20;99.90;;;;;;5077858;28;1249;-57
2022/01/02 08:33:44;;;;;;;;;;;16.20;99.90;;;;;;5076653;28;1415;-46
2022/01/02 08:36:10;;;;;;;;;;;16.20;99.90;;;;;;5077895;28;883;-45
2022/01/02 08:38:36;;;;;;;;;;;16.30;99.90;;;;;;5069603;22;1951;-46
2022/01/02 08:41:02;;;;;;;;;;;16.30;99.90;;;;;;5057642;28;1937;-46
2022/01/02 08:43:30;;;;;;;;;;;16.30;99.90;;;;;;5057620;28;927;-56
2022/01/02 08:45:57;;;;;;;;;;;16.40;99.90;;;;;;5036440;28;1342;-46
2022/01/02 08:48:26;;;;;;;;;;;16.40;99.90;;;;;;5057324;28;1448;-45
2022/01/02 08:50:52;;;;;;;;;;;16.40;99.90;;;;;;5057613;28;853;-56
2022/01/02 08:53:19;;;;;;;;;;;16.40;99.90;;;;;;5057448;28;931;-56
2022/01/02 08:55:46;;;;;;;;;;;16.40;99.90;;;;;;5039069;28;961;-56
2022/01/02 08:58:13;;;;;;;;;;;16.50;99.90;;;;;;5057069;28;1143;-46
2022/01/02 09:00:40;;;;;;;;;;;16.50;99.90;;;;;;5007196;28;979;-43
2022/01/02 09:03:07;;;;;;;;;;;16.50;99.90;;;;;;5057754;28;1979;-57
2022/01/02 09:05:33;;;;;;;;;;;16.50;99.90;;;;;;5057681;28;777;-56
2022/01/02 09:07:59;;;;;;;;;;;16.60;99.90;;;;;;5060861;28;1786;-56
2022/01/02 09:10:28;;;;;;;;;;;16.60;99.90;;;;;;5062080;28;872;-57
2022/01/02 09:12:54;;;;;;;;;;;16.60;99.90;;;;;;5057290;28;849;-56
2022/01/02 09:15:20;;;;;;;;;;;16.60;99.90;;;;;;5057222;28;798;-46
2022/01/02 09:17:47;;;;;;;;;;;16.70;99.90;;;;;;5057123;28;884;-56
2022/01/02 09:20:16;;;;;;;;;;;16.70;99.90;;;;;;5028762;28;2051;-56
2022/01/02 09:22:44;;;;;;;;;;;16.70;99.90;;;;;;5044852;28;1918;-46
2022/01/02 09:25:10;;;;;;;;;;;16.70;99.90;;;;;;5066410;28;1944;-56
2022/01/02 09:27:39;;;;;;;;;;;16.70;99.90;;;;;;5058370;28;849;-45
2022/01/02 09:30:10;;;;;;;;;;;16.80;99.90;;;;;;5057406;28;765;-46
2022/01/02 09:32:37;;;;;;;;;;;16.80;99.90;;;;;;5056964;28;802;-56
2022/01/02 09:35:05;;;;;;;;;;;16.80;99.90;;;;;;5056752;28;762;-51
2022/01/02 09:37:31;;;;;;;;;;;16.80;99.90;;;;;;5056332;28;1033;-56
2022/01/02 09:39:58;;;;;;;;;;;16.80;99.90;;;;;;5056562;28;1207;-56
2022/01/02 09:42:26;;;;;;;;;;;16.80;99.90;;;;;;5056464;28;1977;-57
2022/01/02 09:44:53;;;;;;;;;;;16.90;99.90;;;;;;5056488;28;899;-57
2022/01/02 09:47:21;;;;;;;;;;;16.90;99.90;;;;;;5056741;28;904;-56
2022/01/02 09:49:47;;;;;;;;;;;16.90;99.90;;;;;;5056696;28;805;-56
2022/01/02 09:52:13;;;;;;;;;;;16.90;99.90;;;;;;5056304;28;898;-56
2022/01/02 09:54:40;;;;;;;;;;;16.90;99.90;;;;;;5055812;28;1082;-46
2022/01/02 09:57:06;;;;;;;;;;;17.00;99.90;;;;;;5056414;28;853;-46
2022/01/02 09:59:34;;;;;;;;;;;17.00;99.90;;;;;;5056308;28;862;-46
2022/01/02 10:02:03;;;;;;;;;;;17.00;99.90;;;;;;5058680;28;1983;-46
2022/01/02 10:04:34;;;;;;;;;;;17.00;99.90;;;;;;5056189;28;834;-46
2022/01/02 10:07:01;;;;;;;;;;;16.90;99.90;;;;;;5056189;28;1214;-56
2022/01/02 10:09:39;;;;;;;;;;;17.00;99.90;;;;;;5021277;28;1007;-57
2022/01/02 10:12:20;;;;;;;;;;;17.00;99.90;;;;;;5021601;28;958;-57
2022/01/02 10:15:05;;;;;;;;;;;17.00;99.90;;;;;;5056061;28;786;-57
2022/01/02 10:17:49;;;;;;;;;;;17.00;99.90;;;;;;5014799;28;924;-46
2022/01/02 10:20:15;;;;;;;;;;;17.00;99.90;;;;;;5014684;28;865;-46
2022/01/02 10:23:05;;;;;;;;;;;17.10;99.90;;;;;;5014037;28;1977;-46
2022/01/02 10:25:38;;;;;;;;;;;17.10;99.90;;;;;;4980873;28;1347;-46
2022/01/02 10:28:25;;;;;;;;;;;17.10;99.90;;;;;;5014627;28;924;-57
2022/01/02 10:30:53;;;;;;;;;;;17.10;99.90;;;;;;5014625;28;909;-46
2022/01/02 10:33:19;;;;;;;;;;;17.10;99.90;;;;;;5014592;28;1045;-56
2022/01/02 10:35:47;;;;;;;;;;;17.20;99.90;;;;;;5014663;28;833;-53
2022/01/02 10:38:17;;;;;;;;;;;17.20;99.90;;;;;;5012973;28;1237;-46
2022/01/02 10:40:44;;;;;;;;;;;17.20;99.90;;;;;;4998074;28;1232;-46
2022/01/02 10:43:21;;;;;;;;;;;17.20;99.90;;;;;;5014059;28;1918;-57
2022/01/02 10:45:50;;;;;;;;;;;17.20;99.90;;;;;;5014640;28;888;-57
2022/01/02 10:48:18;;;;;;;;;;;17.20;99.90;;;;;;5022848;28;806;-46
2022/01/02 10:51:04;;;;;;;;;;;17.20;99.90;;;;;;4991091;28;1315;-46
2022/01/02 10:53:31;;;;;;;;;;;17.20;99.90;;;;;;5034147;28;948;-46
2022/01/02 10:55:58;;;;;;;;;;;17.20;99.90;;;;;;5035578;28;895;-46
2022/01/02 10:58:25;;;;;;;;;;;17.30;99.90;;;;;;5035545;28;987;-46
2022/01/02 11:00:52;;;;;;;;;;;17.20;99.90;;;;;;5035293;28;1458;-46
2022/01/02 11:03:22;;;;;;;;;;;17.20;99.90;;;;;;5028382;28;1906;-46
2022/01/02 11:05:50;;;;;;;;;;;17.20;99.90;;;;;;5035066;28;1096;-46
2022/01/02 11:08:17;;;;;;;;;;;17.20;99.90;;;;;;5034941;28;873;-46
2022/01/02 11:10:45;;;;;;;;;;;17.20;99.90;;;;;;5035840;28;827;-46
2022/01/02 11:13:13;;;;;;;;;;;17.20;99.90;;;;;;5035652;28;982;-46
2022/01/02 11:15:40;;;;;;;;;;;17.20;99.90;;;;;;5034284;28;786;-46
2022/01/02 11:18:07;;;;;;;;;;;17.20;99.90;;;;;;5035034;28;1180;-46
2022/01/02 11:20:34;;;;;;;;;;;17.20;99.90;;;;;;5035475;28;777;-46
2022/01/02 11:23:03;;;;;;;;;;;17.20;99.90;;;;;;5033622;28;1906;-47
2022/01/02 11:26:02;;;;;;;;;;;17.20;99.90;;;;;;5035002;28;845;-46
2022/01/02 11:28:53;;;;;;;;;;;17.20;99.90;;;;;;4974882;28;969;-46
2022/01/02 11:31:46;;;;;;;;;;;17.20;99.90;;;;;;4988381;28;966;-57
2022/01/02 11:34:28;;;;;;;;;;;17.30;99.90;;;;;;4946496;28;1002;-58
2022/01/02 11:37:21;;;;;;;;;;;17.30;99.90;;;;;;4976185;28;1237;-56
2022/01/02 11:39:53;;;;;;;;;;;17.20;99.90;;;;;;4979695;28;771;-47
2022/01/02 11:45:21;;;;;;;;;;;17.30;99.90;;;;;;4975461;28;1767;-46
2022/01/02 11:47:47;;;;;;;;;;;17.30;99.90;;;;;;4977726;28;1284;-46
2022/01/02 11:50:33;;;;;;;;;;;17.30;99.90;;;;;;4979800;28;1322;-46
2022/01/02 11:53:08;;;;;;;;;;;17.20;99.90;;;;;;5002661;28;1290;-46
2022/01/02 11:55:35;;;;;;;;;;;17.30;99.90;;;;;;4979544;28;1358;-46
2022/01/02 11:58:02;;;;;;;;;;;17.30;99.90;;;;;;4979281;28;1000;-46
2022/01/02 12:00:32;;;;;;;;;;;17.20;99.90;;;;;;4981331;28;1268;-46
2022/01/02 12:02:58;;;;;;;;;;;17.10;99.90;;;;;;4977246;28;1906;-45
2022/01/02 12:05:24;;;;;;;;;;;17.00;99.90;;;;;;4980489;28;920;-45
2022/01/02 12:07:51;;;;;;;;;;;16.90;99.90;;;;;;4979696;28;815;-46
2022/01/02 12:10:17;;;;;;;;;;;16.80;99.90;;;;;;4978681;28;1166;-45
2022/01/02 12:13:04;;;;;;;;;;;16.90;99.90;;;;;;4979852;28;1331;-46
2022/01/02 12:15:30;;;;;;;;;;;17.00;99.90;;;;;;4979758;28;1164;-46
2022/01/02 12:18:07;;;;;;;;;;;17.00;99.90;;;;;;4995009;28;869;-46
2022/01/02 12:20:54;;;;;;;;;;;17.10;99.90;;;;;;4979661;28;1349;-46
2022/01/02 12:23:41;;;;;;;;;;;17.10;99.90;;;;;;4978798;28;1902;-46
2022/01/02 12:26:09;;;;;;;;;;;17.10;99.90;;;;;;4974792;28;1763;-46
2022/01/02 12:28:47;;;;;;;;;;;17.20;99.90;;;;;;4978559;28;1371;-46
2022/01/02 12:31:13;;;;;;;;;;;17.20;99.90;;;;;;5016953;28;1291;-46
2022/01/02 12:33:39;;;;;;;;;;;17.20;99.90;;;;;;4979052;28;1405;-46
2022/01/02 12:36:09;;;;;;;;;;;17.20;99.90;;;;;;4977795;28;1430;-47
2022/01/02 12:38:47;;;;;;;;;;;17.30;99.90;;;;;;4978577;28;1362;-45
2022/01/02 12:41:14;;;;;;;;;;;17.30;99.90;;;;;;4979234;28;1155;-45
2022/01/02 12:43:54;;;;;;;;;;;17.30;99.90;;;;;;4984849;28;1906;-46
2022/01/02 12:46:30;;;;;;;;;;;17.30;99.90;;;;;;4997651;28;1195;-45
2022/01/02 12:48:56;;;;;;;;;;;17.40;99.90;;;;;;4998109;28;1135;-45
2022/01/02 12:51:27;;;;;;;;;;;17.50;99.90;;;;;;4996699;28;1407;-45
2022/01/02 12:54:05;;;;;;;;;;;17.50;99.90;;;;;;4993901;28;981;-55
2022/01/02 12:56:33;;;;;;;;;;;17.60;99.90;;;;;;4997539;28;1163;-55
2022/01/02 12:59:18;;;;;;;;;;;17.60;99.90;;;;;;4997299;28;1104;-56
2022/01/02 13:01:48;;;;;;;;;;;17.70;99.90;;;;;;4996099;28;1965;-46
2022/01/02 13:04:17;;;;;;;;;;;17.70;99.90;;;;;;5000582;28;1083;-57
2022/01/02 13:06:45;;;;;;;;;;;17.80;99.90;;;;;;4998496;28;997;-57
2022/01/02 13:09:31;;;;;;;;;;;17.80;99.90;;;;;;4998662;28;1737;-57
2022/01/02 13:11:58;;;;;;;;;;;17.80;99.90;;;;;;4996985;28;1819;-46
2022/01/02 13:14:32;;;;;;;;;;;17.80;99.90;;;;;;4997256;28;1091;-57
2022/01/02 13:17:00;;;;;;;;;;;17.90;99.90;;;;;;4996918;28;1511;-58
2022/01/02 13:19:28;;;;;;;;;;;17.90;99.90;;;;;;4998138;28;1324;-57
2022/01/02 13:21:55;;;;;;;;;;;17.90;99.90;;;;;;5012784;28;1903;-57
2022/01/02 13:24:39;;;;;;;;;;;17.90;99.90;;;;;;4995962;28;1295;-57
2022/01/02 13:27:07;;;;;;;;;;;18.00;99.90;;;;;;4995904;28;1409;-57
2022/01/02 13:29:35;;;;;;;;;;;18.00;99.90;;;;;;4995882;28;1080;-46
2022/01/02 13:32:11;;;;;;;;;;;18.00;99.90;;;;;;4997204;28;1369;-46
2022/01/02 13:34:38;;;;;;;;;;;18.10;99.90;;;;;;4996943;28;786;-46
2022/01/02 13:37:05;;;;;;;;;;;18.10;99.90;;;;;;5013022;28;1026;-55
2022/01/02 13:39:38;;;;;;;;;;;18.10;99.90;;;;;;4997921;28;899;-46
2022/01/02 13:42:06;;;;;;;;;;;18.10;99.90;;;;;;5011709;28;1983;-56
2022/01/02 13:44:36;;;;;;;;;;;18.20;99.90;;;;;;4996168;28;1066;-45
2022/01/02 13:47:02;;;;;;;;;;;18.20;99.90;;;;;;4997042;28;855;-46
2022/01/02 13:49:48;;;;;;;;;;;18.30;99.90;;;;;;4997148;28;933;-46
2022/01/02 13:52:17;;;;;;;;;;;18.30;99.90;;;;;;4996113;28;1052;-45
2022/01/02 13:54:44;;;;;;;;;;;18.30;99.90;;;;;;4992483;28;1097;-46
2022/01/02 13:57:11;;;;;;;;;;;18.30;99.90;;;;;;5005952;28;1005;-46
2022/01/02 13:59:40;;;;;;;;;;;18.30;99.90;;;;;;4992217;28;1259;-46
2022/01/02 14:02:06;;;;;;;;;;;18.30;99.90;;;;;;5009535;28;1914;-46
2022/01/02 14:04:51;;;;;;;;;;;18.40;99.90;;;;;;4994595;28;843;-46
2022/01/02 14:07:17;;;;;;;;;;;18.40;99.90;;;;;;4995322;28;998;-46
2022/01/02 14:09:48;;;;;;;;;;;18.40;99.90;;;;;;4995865;28;1585;-46
2022/01/02 14:12:20;;;;;;;;;;;18.50;99.90;;;;;;4995939;28;848;-46
2022/01/02 14:14:50;;;;;;;;;;;18.50;99.90;;;;;;4994556;28;793;-46
2022/01/02 14:17:33;;;;;;;;;;;18.50;99.90;;;;;;4994900;28;905;-46
2022/01/02 14:20:03;;;;;;;;;;;18.50;99.90;;;;;;4995713;28;743;-46
2022/01/02 14:22:33;;;;;;;;;;;18.50;99.90;;;;;;4995700;28;1910;-46
2022/01/02 14:24:59;;;;;;;;;;;18.50;99.90;;;;;;4994279;28;1299;-46
2022/01/02 14:27:28;;;;;;;;;;;18.50;99.90;;;;;;4995303;28;1429;-46
2022/01/02 14:29:55;;;;;;;;;;;18.50;99.90;;;;;;4995014;28;1058;-46
2022/01/02 14:32:21;;;;;;;;;;;18.50;99.90;;;;;;4995422;28;805;-46
2022/01/02 14:34:47;;;;;;;;;;;18.50;99.90;;;;;;4994898;28;997;-46
2022/01/02 14:37:14;;;;;;;;;;;18.50;99.90;;;;;;4995802;28;916;-46
2022/01/02 14:39:40;;;;;;;;;;;18.50;99.90;;;;;;4995398;28;883;-46
2022/01/02 14:42:06;;;;;;;;;;;18.50;99.90;;;;;;4995240;28;1907;-46
2022/01/02 14:44:33;;;;;;;;;;;18.50;99.90;;;;;;4993881;28;1165;-46
2022/01/02 14:46:59;;;;;;;;;;;18.50;99.90;;;;;;4994589;28;1310;-46
2022/01/02 14:49:25;;;;;;;;;;;18.50;99.90;;;;;;4995068;28;880;-46
2022/01/02 14:51:52;;;;;;;;;;;18.50;99.90;;;;;;4991837;28;881;-46
2022/01/02 14:54:18;;;;;;;;;;;18.50;99.90;;;;;;4994656;28;845;-46
2022/01/02 14:56:44;;;;;;;;;;;18.50;99.90;;;;;;4995062;28;864;-46